sensor_id;sensor_type;location;lat;lon;timestamp;temperature;humidity
23087;DHT22;11712;51.134;4.156;2022-08-21T00:00:27;15.70;99.90
23087;DHT22;11712;51.134;4.156;2022-08-21T00:03:04;15.40;99.90
23087;DHT22;11712;51.134;4.156;2022-08-21T00:05:32;15.30;99.90
23087;DHT22;11712;51.134;4.156;2022-08-21T00:07:58;15.30;99.90
23087;DHT22;11712;51.134;4.156;2022-08-21T00:10:25;15.30;99.90
23087;DHT22;11712;51.134;4.156;2022-08-21T00:12:51;15.40;99.90
23087;DHT22;11712;51.134;4.156;2022-08-21T00:15:20;15.30;99.90
23087;DHT22;11712;51.134;4.156;2022-08-21T00:17:46;15.30;99.90
23087;DHT22;11712;51.134;4.156;2022-08-21T00:20:14;15.30;99.90
23087;DHT22;11712;51.134;4.156;2022-08-21T00:22:41;15.20;99.90
23087;DHT22;11712;51.134;4.156;2022-08-21T00:25:08;15.20;99.90
23087;DHT22;11712;51.134;4.156;2022-08-21T00:27:34;15.10;99.90
23087;DHT22;11712;51.134;4.156;2022-08-21T00:30:00;15.10;99.90
23087;DHT22;11712;51.134;4.156;2022-08-21T00:32:27;14.90;99.90
23087;DHT22;11712;51.134;4.156;2022-08-21T00:34:54;14.90;99.90
23087;DHT22;11712;51.134;4.156;2022-08-21T00:37:19;14.90;99.90
23087;DHT22;11712;51.134;4.156;2022-08-21T00:39:45;14.90;99.90
23087;DHT22;11712;51.134;4.156;2022-08-21T00:42:13;14.90;99.90
23087;DHT22;11712;51.134;4.156;2022-08-21T00:44:46;14.80;99.90
23087;DHT22;11712;51.134;4.156;2022-08-21T00:47:12;14.80;99.90
23087;DHT22;11712;51.134;4.156;2022-08-21T00:49:38;14.70;99.90
23087;DHT22;11712;51.134;4.156;2022-08-21T00:52:07;14.70;99.90
23087;DHT22;11712;51.134;4.156;2022-08-21T00:54:33;14.70;99.90
23087;DHT22;11712;51.134;4.156;2022-08-21T00:57:03;14.70;99.90
23087;DHT22;11712;51.134;4.156;2022-08-21T00:59:33;14.70;99.90
23087;DHT22;11712;51.134;4.156;2022-08-21T01:01:59;14.70;99.90
23087;DHT22;11712;51.134;4.156;2022-08-21T01:04:25;14.70;99.90
23087;DHT22;11712;51.134;4.156;2022-08-21T01:06:51;14.70;99.90
23087;DHT22;11712;51.134;4.156;2022-08-21T01:09:17;14.60;99.90
23087;DHT22;11712;51.134;4.156;2022-08-21T01:11:44;14.60;99.90
23087;DHT22;11712;51.134;4.156;2022-08-21T01:14:12;14.70;99.90
23087;DHT22;11712;51.134;4.156;2022-08-21T01:16:40;14.70;99.90
23087;DHT22;11712;51.134;4.156;2022-08-21T01:19:08;14.70;99.90
23087;DHT22;11712;51.134;4.156;2022-08-21T01:21:34;14.60;99.90
23087;DHT22;11712;51.134;4.156;2022-08-21T01:24:00;14.60;99.90
23087;DHT22;11712;51.134;4.156;2022-08-21T01:26:30;14.50;99.90
23087;DHT22;11712;51.134;4.156;2022-08-21T01:29:01;14.50;99.90
23087;DHT22;11712;51.134;4.156;2022-08-21T01:31:29;14.50;99.90
23087;DHT22;11712;51.134;4.156;2022-08-21T01:33:56;14.40;99.90
23087;DHT22;11712;51.134;4.156;2022-08-21T01:36:22;14.40;99.90
23087;DHT22;11712;51.134;4.156;2022-08-21T01:38:48;14.40;99.90
23087;DHT22;11712;51.134;4.156;2022-08-21T01:41:15;14.40;99.90
23087;DHT22;11712;51.134;4.156;2022-08-21T01:43:42;14.30;99.90
23087;DHT22;11712;51.134;4.156;2022-08-21T01:46:08;14.20;99.90
23087;DHT22;11712;51.134;4.156;2022-08-21T01:48:35;14.20;99.90
23087;DHT22;11712;51.134;4.156;2022-08-21T01:51:00;14.20;99.90
23087;DHT22;11712;51.134;4.156;2022-08-21T01:53:26;14.10;99.90
23087;DHT22;11712;51.134;4.156;2022-08-21T01:55:52;14.10;99.90
23087;DHT22;11712;51.134;4.156;2022-08-21T01:58:18;14.10;99.90
23087;DHT22;11712;51.134;4.156;2022-08-21T02:00:43;14.10;99.90
23087;DHT22;11712;51.134;4.156;2022-08-21T02:03:09;14.20;99.90
23087;DHT22;11712;51.134;4.156;2022-08-21T02:05:35;14.10;99.90
23087;DHT22;11712;51.134;4.156;2022-08-21T02:08:00;14.10;99.90
23087;DHT22;11712;51.134;4.156;2022-08-21T02:10:30;14.10;99.90
23087;DHT22;11712;51.134;4.156;2022-08-21T02:12:57;14.10;99.90
23087;DHT22;11712;51.134;4.156;2022-08-21T02:15:24;14.10;99.90
23087;DHT22;11712;51.134;4.156;2022-08-21T02:17:55;14.00;99.90
23087;DHT22;11712;51.134;4.156;2022-08-21T02:20:27;14.10;99.90
23087;DHT22;11712;51.134;4.156;2022-08-21T02:22:53;14.00;99.90
23087;DHT22;11712;51.134;4.156;2022-08-21T02:25:20;13.80;99.90
23087;DHT22;11712;51.134;4.156;2022-08-21T02:27:47;13.80;99.90
23087;DHT22;11712;51.134;4.156;2022-08-21T02:30:19;13.80;99.90
23087;DHT22;11712;51.134;4.156;2022-08-21T02:32:45;13.70;99.90
23087;DHT22;11712;51.134;4.156;2022-08-21T02:35:12;13.80;99.90
23087;DHT22;11712;51.134;4.156;2022-08-21T02:37:53;13.70;99.90
23087;DHT22;11712;51.134;4.156;2022-08-21T02:40:22;13.80;99.90
23087;DHT22;11712;51.134;4.156;2022-08-21T02:42:48;13.80;99.90
23087;DHT22;11712;51.134;4.156;2022-08-21T02:45:15;13.70;99.90
23087;DHT22;11712;51.134;4.156;2022-08-21T02:47:54;13.70;99.90
23087;DHT22;11712;51.134;4.156;2022-08-21T02:50:24;13.70;99.90
23087;DHT22;11712;51.134;4.156;2022-08-21T02:52:49;13.80;99.90
23087;DHT22;11712;51.134;4.156;2022-08-21T02:55:18;13.80;99.90
23087;DHT22;11712;51.134;4.156;2022-08-21T02:57:44;13.70;99.90
23087;DHT22;11712;51.134;4.156;2022-08-21T03:00:10;13.60;99.90
23087;DHT22;11712;51.134;4.156;2022-08-21T03:02:37;13.60;99.90
23087;DHT22;11712;51.134;4.156;2022-08-21T03:05:04;13.60;99.90
23087;DHT22;11712;51.134;4.156;2022-08-21T03:07:30;13.50;99.90
23087;DHT22;11712;51.134;4.156;2022-08-21T03:09:56;13.40;99.90
23087;DHT22;11712;51.134;4.156;2022-08-21T03:12:22;13.50;99.90
23087;DHT22;11712;51.134;4.156;2022-08-21T03:14:48;13.50;99.90
23087;DHT22;11712;51.134;4.156;2022-08-21T03:17:13;13.40;99.90
23087;DHT22;11712;51.134;4.156;2022-08-21T03:19:39;13.40;99.90
23087;DHT22;11712;51.134;4.156;2022-08-21T03:22:04;13.40;99.90
23087;DHT22;11712;51.134;4.156;2022-08-21T03:24:30;13.40;99.90
23087;DHT22;11712;51.134;4.156;2022-08-21T03:26:56;13.50;99.90
23087;DHT22;11712;51.134;4.156;2022-08-21T03:29:22;13.50;99.90
23087;DHT22;11712;51.134;4.156;2022-08-21T03:31:48;13.50;99.90
23087;DHT22;11712;51.134;4.156;2022-08-21T03:34:13;13.60;99.90
23087;DHT22;11712;51.134;4.156;2022-08-21T03:36:39;13.60;99.90
23087;DHT22;11712;51.134;4.156;2022-08-21T03:39:05;13.70;99.90
23087;DHT22;11712;51.134;4.156;2022-08-21T03:41:31;13.80;99.90
23087;DHT22;11712;51.134;4.156;2022-08-21T03:43:57;13.80;99.90
23087;DHT22;11712;51.134;4.156;2022-08-21T03:46:22;13.90;99.90
23087;DHT22;11712;51.134;4.156;2022-08-21T03:48:48;13.80;99.90
23087;DHT22;11712;51.134;4.156;2022-08-21T03:51:14;13.80;99.90
23087;DHT22;11712;51.134;4.156;2022-08-21T03:53:40;13.80;99.90
23087;DHT22;11712;51.134;4.156;2022-08-21T03:56:06;13.90;99.90
23087;DHT22;11712;51.134;4.156;2022-08-21T03:58:32;14.00;99.90
23087;DHT22;11712;51.134;4.156;2022-08-21T04:00:59;13.70;99.90
23087;DHT22;11712;51.134;4.156;2022-08-21T04:03:27;13.70;99.90
23087;DHT22;11712;51.134;4.156;2022-08-21T04:05:53;13.60;99.90
23087;DHT22;11712;51.134;4.156;2022-08-21T04:08:19;13.60;99.90
23087;DHT22;11712;51.134;4.156;2022-08-21T04:10:47;13.60;99.90
23087;DHT22;11712;51.134;4.156;2022-08-21T04:13:13;13.60;99.90
23087;DHT22;11712;51.134;4.156;2022-08-21T04:15:40;13.70;99.90
23087;DHT22;11712;51.134;4.156;2022-08-21T04:18:06;13.80;99.90
23087;DHT22;11712;51.134;4.156;2022-08-21T04:20:34;13.90;99.90
23087;DHT22;11712;51.134;4.156;2022-08-21T04:23:00;13.70;99.90
23087;DHT22;11712;51.134;4.156;2022-08-21T04:25:26;13.80;99.90
23087;DHT22;11712;51.134;4.156;2022-08-21T04:27:52;13.80;99.90
23087;DHT22;11712;51.134;4.156;2022-08-21T04:30:18;13.80;99.90
23087;DHT22;11712;51.134;4.156;2022-08-21T04:32:45;13.80;99.90
23087;DHT22;11712;51.134;4.156;2022-08-21T04:35:14;13.70;99.90
23087;DHT22;11712;51.134;4.156;2022-08-21T04:37:40;13.80;99.90
23087;DHT22;11712;51.134;4.156;2022-08-21T04:40:06;13.90;99.90
23087;DHT22;11712;51.134;4.156;2022-08-21T04:42:44;13.80;99.90
23087;DHT22;11712;51.134;4.156;2022-08-21T04:45:16;13.90;99.90
23087;DHT22;11712;51.134;4.156;2022-08-21T04:47:42;13.80;99.90
23087;DHT22;11712;51.134;4.156;2022-08-21T04:50:08;13.70;99.90
23087;DHT22;11712;51.134;4.156;2022-08-21T04:52:34;13.50;99.90
23087;DHT22;11712;51.134;4.156;2022-08-21T04:55:00;13.60;99.90
23087;DHT22;11712;51.134;4.156;2022-08-21T04:57:26;13.60;99.90
23087;DHT22;11712;51.134;4.156;2022-08-21T04:59:52;13.60;99.90
23087;DHT22;11712;51.134;4.156;2022-08-21T05:02:18;13.50;99.90
23087;DHT22;11712;51.134;4.156;2022-08-21T05:04:51;13.60;99.90
23087;DHT22;11712;51.134;4.156;2022-08-21T05:07:22;13.80;99.90
23087;DHT22;11712;51.134;4.156;2022-08-21T05:09:49;13.80;99.90
23087;DHT22;11712;51.134;4.156;2022-08-21T05:12:15;14.00;99.90
23087;DHT22;11712;51.134;4.156;2022-08-21T05:14:41;14.20;99.90
23087;DHT22;11712;51.134;4.156;2022-08-21T05:17:08;14.30;99.90
23087;DHT22;11712;51.134;4.156;2022-08-21T05:19:34;14.40;99.90
23087;DHT22;11712;51.134;4.156;2022-08-21T05:22:00;14.40;99.90
23087;DHT22;11712;51.134;4.156;2022-08-21T05:24:27;14.50;99.90
23087;DHT22;11712;51.134;4.156;2022-08-21T05:26:52;14.60;99.90
23087;DHT22;11712;51.134;4.156;2022-08-21T05:29:18;14.60;99.90
23087;DHT22;11712;51.134;4.156;2022-08-21T05:31:45;14.60;99.90
23087;DHT22;11712;51.134;4.156;2022-08-21T05:34:11;14.80;99.90
23087;DHT22;11712;51.134;4.156;2022-08-21T05:36:37;14.80;99.90
23087;DHT22;11712;51.134;4.156;2022-08-21T05:39:03;14.90;99.90
23087;DHT22;11712;51.134;4.156;2022-08-21T05:41:29;15.00;99.90
23087;DHT22;11712;51.134;4.156;2022-08-21T05:43:54;15.20;99.90
23087;DHT22;11712;51.134;4.156;2022-08-21T05:46:20;15.10;99.90
23087;DHT22;11712;51.134;4.156;2022-08-21T05:48:46;15.20;99.90
23087;DHT22;11712;51.134;4.156;2022-08-21T05:51:13;15.20;99.90
23087;DHT22;11712;51.134;4.156;2022-08-21T05:53:40;15.20;99.90
23087;DHT22;11712;51.134;4.156;2022-08-21T05:56:07;15.30;99.90
23087;DHT22;11712;51.134;4.156;2022-08-21T05:58:34;15.60;99.90
23087;DHT22;11712;51.134;4.156;2022-08-21T06:01:01;15.50;99.90
23087;DHT22;11712;51.134;4.156;2022-08-21T06:03:30;15.60;99.90
23087;DHT22;11712;51.134;4.156;2022-08-21T06:05:56;15.60;99.90
23087;DHT22;11712;51.134;4.156;2022-08-21T06:08:23;15.70;99.90
23087;DHT22;11712;51.134;4.156;2022-08-21T06:10:50;15.80;99.90
23087;DHT22;11712;51.134;4.156;2022-08-21T06:13:17;16.00;99.90
23087;DHT22;11712;51.134;4.156;2022-08-21T06:15:43;16.20;99.90
23087;DHT22;11712;51.134;4.156;2022-08-21T06:18:09;16.10;99.90
23087;DHT22;11712;51.134;4.156;2022-08-21T06:20:35;16.20;99.90
23087;DHT22;11712;51.134;4.156;2022-08-21T06:23:01;16.30;99.90
23087;DHT22;11712;51.134;4.156;2022-08-21T06:25:27;16.30;99.90
23087;DHT22;11712;51.134;4.156;2022-08-21T06:28:04;16.50;99.90
23087;DHT22;11712;51.134;4.156;2022-08-21T06:30:31;16.50;99.90
23087;DHT22;11712;51.134;4.156;2022-08-21T06:32:57;16.50;99.90
23087;DHT22;11712;51.134;4.156;2022-08-21T06:35:23;16.80;99.90
23087;DHT22;11712;51.134;4.156;2022-08-21T06:37:50;16.80;99.90
23087;DHT22;11712;51.134;4.156;2022-08-21T06:40:15;16.70;99.90
23087;DHT22;11712;51.134;4.156;2022-08-21T06:42:41;16.80;99.90
23087;DHT22;11712;51.134;4.156;2022-08-21T06:45:07;16.90;99.90
23087;DHT22;11712;51.134;4.156;2022-08-21T06:47:32;16.90;99.90
23087;DHT22;11712;51.134;4.156;2022-08-21T06:49:58;17.00;99.90
23087;DHT22;11712;51.134;4.156;2022-08-21T06:52:23;17.20;99.90
23087;DHT22;11712;51.134;4.156;2022-08-21T06:54:49;17.20;99.90
23087;DHT22;11712;51.134;4.156;2022-08-21T06:57:15;17.40;99.90
23087;DHT22;11712;51.134;4.156;2022-08-21T06:59:41;17.60;99.90
23087;DHT22;11712;51.134;4.156;2022-08-21T07:02:07;17.60;99.90
23087;DHT22;11712;51.134;4.156;2022-08-21T07:04:33;17.70;99.90
23087;DHT22;11712;51.134;4.156;2022-08-21T07:06:59;17.80;99.90
23087;DHT22;11712;51.134;4.156;2022-08-21T07:09:24;17.80;99.90
23087;DHT22;11712;51.134;4.156;2022-08-21T07:11:53;18.00;99.90
23087;DHT22;11712;51.134;4.156;2022-08-21T07:14:19;18.00;99.90
23087;DHT22;11712;51.134;4.156;2022-08-21T07:16:45;18.20;99.90
23087;DHT22;11712;51.134;4.156;2022-08-21T07:19:10;18.30;99.90
23087;DHT22;11712;51.134;4.156;2022-08-21T07:21:36;18.40;99.90
23087;DHT22;11712;51.134;4.156;2022-08-21T07:24:02;18.30;99.90
23087;DHT22;11712;51.134;4.156;2022-08-21T07:26:28;18.40;99.90
23087;DHT22;11712;51.134;4.156;2022-08-21T07:28:53;18.60;99.90
23087;DHT22;11712;51.134;4.156;2022-08-21T07:31:21;18.80;99.90
23087;DHT22;11712;51.134;4.156;2022-08-21T07:33:47;19.00;99.90
23087;DHT22;11712;51.134;4.156;2022-08-21T07:36:13;19.10;99.90
23087;DHT22;11712;51.134;4.156;2022-08-21T07:38:39;19.10;99.90
23087;DHT22;11712;51.134;4.156;2022-08-21T07:41:25;19.30;99.90
23087;DHT22;11712;51.134;4.156;2022-08-21T07:43:51;19.30;99.90
23087;DHT22;11712;51.134;4.156;2022-08-21T07:46:17;19.40;99.90
23087;DHT22;11712;51.134;4.156;2022-08-21T07:48:43;19.60;99.90
23087;DHT22;11712;51.134;4.156;2022-08-21T07:51:11;19.70;99.90
23087;DHT22;11712;51.134;4.156;2022-08-21T07:53:38;19.60;99.90
23087;DHT22;11712;51.134;4.156;2022-08-21T07:56:05;19.70;99.90
23087;DHT22;11712;51.134;4.156;2022-08-21T07:58:31;19.90;99.90
23087;DHT22;11712;51.134;4.156;2022-08-21T08:00:57;20.00;99.90
23087;DHT22;11712;51.134;4.156;2022-08-21T08:03:23;20.00;99.90
23087;DHT22;11712;51.134;4.156;2022-08-21T08:05:49;20.00;99.90
23087;DHT22;11712;51.134;4.156;2022-08-21T08:08:15;20.00;99.90
23087;DHT22;11712;51.134;4.156;2022-08-21T08:10:41;20.10;99.90
23087;DHT22;11712;51.134;4.156;2022-08-21T08:13:07;20.10;99.90
23087;DHT22;11712;51.134;4.156;2022-08-21T08:15:34;19.90;99.90
23087;DHT22;11712;51.134;4.156;2022-08-21T08:17:59;20.00;99.90
23087;DHT22;11712;51.134;4.156;2022-08-21T08:20:26;20.00;99.90
23087;DHT22;11712;51.134;4.156;2022-08-21T08:22:52;20.20;99.90
23087;DHT22;11712;51.134;4.156;2022-08-21T08:25:19;20.10;99.90
23087;DHT22;11712;51.134;4.156;2022-08-21T08:27:45;20.30;99.90
23087;DHT22;11712;51.134;4.156;2022-08-21T08:30:13;20.50;99.90
23087;DHT22;11712;51.134;4.156;2022-08-21T08:32:40;20.60;99.90
23087;DHT22;11712;51.134;4.156;2022-08-21T08:35:07;20.70;99.90
23087;DHT22;11712;51.134;4.156;2022-08-21T08:37:34;20.50;99.90
23087;DHT22;11712;51.134;4.156;2022-08-21T08:40:00;20.60;99.90
23087;DHT22;11712;51.134;4.156;2022-08-21T08:42:35;20.80;99.90
23087;DHT22;11712;51.134;4.156;2022-08-21T08:45:13;21.00;99.90
23087;DHT22;11712;51.134;4.156;2022-08-21T08:47:52;21.30;99.90
23087;DHT22;11712;51.134;4.156;2022-08-21T08:50:54;21.40;99.90
23087;DHT22;11712;51.134;4.156;2022-08-21T08:53:36;21.60;99.90
23087;DHT22;11712;51.134;4.156;2022-08-21T08:56:05;21.70;99.90
23087;DHT22;11712;51.134;4.156;2022-08-21T08:58:36;21.70;99.90
23087;DHT22;11712;51.134;4.156;2022-08-21T09:01:06;21.90;99.90
23087;DHT22;11712;51.134;4.156;2022-08-21T09:03:38;21.60;99.90
23087;DHT22;11712;51.134;4.156;2022-08-21T09:11:37;22.00;99.90
23087;DHT22;11712;51.134;4.156;2022-08-21T09:14:47;22.00;99.90
23087;DHT22;11712;51.134;4.156;2022-08-21T09:17:19;22.20;99.90
23087;DHT22;11712;51.134;4.156;2022-08-21T09:22:39;22.70;99.90
23087;DHT22;11712;51.134;4.156;2022-08-21T09:25:25;22.80;99.90
23087;DHT22;11712;51.134;4.156;2022-08-21T09:27:51;22.80;99.90
23087;DHT22;11712;51.134;4.156;2022-08-21T09:30:19;22.70;99.90
23087;DHT22;11712;51.134;4.156;2022-08-21T09:32:48;22.70;99.90
23087;DHT22;11712;51.134;4.156;2022-08-21T09:35:19;22.70;99.90
23087;DHT22;11712;51.134;4.156;2022-08-21T09:37:58;22.70;99.90
23087;DHT22;11712;51.134;4.156;2022-08-21T09:40:42;22.60;99.90
23087;DHT22;11712;51.134;4.156;2022-08-21T09:45:35;22.50;99.90
23087;DHT22;11712;51.134;4.156;2022-08-21T09:50:40;22.20;99.90
23087;DHT22;11712;51.134;4.156;2022-08-21T09:55:55;22.70;99.90
23087;DHT22;11712;51.134;4.156;2022-08-21T09:58:42;22.70;99.90
23087;DHT22;11712;51.134;4.156;2022-08-21T10:01:22;22.30;99.90
23087;DHT22;11712;51.134;4.156;2022-08-21T10:03:49;22.10;99.90
23087;DHT22;11712;51.134;4.156;2022-08-21T10:06:27;22.30;99.90
23087;DHT22;11712;51.134;4.156;2022-08-21T10:11:33;22.70;99.90
23087;DHT22;11712;51.134;4.156;2022-08-21T10:16:52;23.30;99.90
23087;DHT22;11712;51.134;4.156;2022-08-21T10:19:27;23.50;99.90
23087;DHT22;11712;51.134;4.156;2022-08-21T10:24:23;23.50;99.90
23087;DHT22;11712;51.134;4.156;2022-08-21T10:27:13;23.40;99.90
23087;DHT22;11712;51.134;4.156;2022-08-21T10:29:53;23.60;99.90
23087;DHT22;11712;51.134;4.156;2022-08-21T10:35:27;23.50;99.90
23087;DHT22;11712;51.134;4.156;2022-08-21T10:41:05;23.60;99.90
23087;DHT22;11712;51.134;4.156;2022-08-21T10:43:47;23.40;99.90
23087;DHT22;11712;51.134;4.156;2022-08-21T10:49:13;23.70;99.90
23087;DHT22;11712;51.134;4.156;2022-08-21T10:54:57;23.60;99.90
23087;DHT22;11712;51.134;4.156;2022-08-21T10:57:47;23.70;99.90
23087;DHT22;11712;51.134;4.156;2022-08-21T11:00:24;23.60;99.90
23087;DHT22;11712;51.134;4.156;2022-08-21T11:05:47;23.70;99.90
23087;DHT22;11712;51.134;4.156;2022-08-21T11:11:05;23.50;99.90
23087;DHT22;11712;51.134;4.156;2022-08-21T11:13:49;23.70;99.90
23087;DHT22;11712;51.134;4.156;2022-08-21T11:19:02;23.80;99.90
23087;DHT22;11712;51.134;4.156;2022-08-21T11:21:42;24.00;99.90
23087;DHT22;11712;51.134;4.156;2022-08-21T11:24:32;24.20;99.90
23087;DHT22;11712;51.134;4.156;2022-08-21T11:27:21;24.30;99.90
23087;DHT22;11712;51.134;4.156;2022-08-21T11:29:54;24.60;99.90
23087;DHT22;11712;51.134;4.156;2022-08-21T11:38:46;25.00;99.90
23087;DHT22;11712;51.134;4.156;2022-08-21T11:43:41;25.30;99.90
23087;DHT22;11712;51.134;4.156;2022-08-21T11:51:52;25.30;99.90
23087;DHT22;11712;51.134;4.156;2022-08-21T11:54:33;25.20;99.90
23087;DHT22;11712;51.134;4.156;2022-08-21T11:57:31;25.40;99.90
23087;DHT22;11712;51.134;4.156;2022-08-21T12:00:02;25.40;99.90
23087;DHT22;11712;51.134;4.156;2022-08-21T12:02:35;25.20;99.90
23087;DHT22;11712;51.134;4.156;2022-08-21T12:05:06;25.30;99.90
23087;DHT22;11712;51.134;4.156;2022-08-21T12:09:59;24.60;99.90
23087;DHT22;11712;51.134;4.156;2022-08-21T12:12:37;24.70;99.90
23087;DHT22;11712;51.134;4.156;2022-08-21T12:15:27;25.00;99.90
23087;DHT22;11712;51.134;4.156;2022-08-21T12:22:54;24.90;99.90
23087;DHT22;11712;51.134;4.156;2022-08-21T12:25:22;24.60;99.90
23087;DHT22;11712;51.134;4.156;2022-08-21T12:27:51;24.50;99.90
23087;DHT22;11712;51.134;4.156;2022-08-21T12:33:01;24.10;99.90
23087;DHT22;11712;51.134;4.156;2022-08-21T12:35:37;24.20;99.90
23087;DHT22;11712;51.134;4.156;2022-08-21T12:38:14;24.10;99.90
23087;DHT22;11712;51.134;4.156;2022-08-21T12:41:04;24.10;99.90
23087;DHT22;11712;51.134;4.156;2022-08-21T12:43:55;24.10;99.90
23087;DHT22;11712;51.134;4.156;2022-08-21T12:46:30;24.40;99.90
23087;DHT22;11712;51.134;4.156;2022-08-21T12:49:02;24.60;99.90
23087;DHT22;11712;51.134;4.156;2022-08-21T12:54:24;25.00;99.90
23087;DHT22;11712;51.134;4.156;2022-08-21T12:57:05;25.00;99.90
23087;DHT22;11712;51.134;4.156;2022-08-21T12:59:31;25.00;99.90
23087;DHT22;11712;51.134;4.156;2022-08-21T13:01:59;25.00;99.90
23087;DHT22;11712;51.134;4.156;2022-08-21T13:04:38;25.00;99.90
23087;DHT22;11712;51.134;4.156;2022-08-21T13:07:07;24.90;99.90
23087;DHT22;11712;51.134;4.156;2022-08-21T13:09:42;24.90;99.90
23087;DHT22;11712;51.134;4.156;2022-08-21T13:12:09;24.90;99.90
23087;DHT22;11712;51.134;4.156;2022-08-21T13:14:39;25.00;99.90
23087;DHT22;11712;51.134;4.156;2022-08-21T13:17:06;25.20;99.90
23087;DHT22;11712;51.134;4.156;2022-08-21T13:19:33;25.20;99.90
23087;DHT22;11712;51.134;4.156;2022-08-21T13:22:00;25.30;99.90
23087;DHT22;11712;51.134;4.156;2022-08-21T13:24:29;25.50;99.90
23087;DHT22;11712;51.134;4.156;2022-08-21T13:26:55;25.30;99.90
23087;DHT22;11712;51.134;4.156;2022-08-21T13:29:27;25.40;99.90
23087;DHT22;11712;51.134;4.156;2022-08-21T13:31:58;25.50;99.90
23087;DHT22;11712;51.134;4.156;2022-08-21T13:34:26;25.50;99.90
23087;DHT22;11712;51.134;4.156;2022-08-21T13:36:57;25.40;99.90
23087;DHT22;11712;51.134;4.156;2022-08-21T13:39:24;25.40;99.90
23087;DHT22;11712;51.134;4.156;2022-08-21T13:41:54;25.30;99.90
23087;DHT22;11712;51.134;4.156;2022-08-21T13:44:23;25.00;99.90
23087;DHT22;11712;51.134;4.156;2022-08-21T13:46:53;24.90;99.90
23087;DHT22;11712;51.134;4.156;2022-08-21T13:49:25;25.00;99.90
23087;DHT22;11712;51.134;4.156;2022-08-21T13:51:51;25.10;99.90
23087;DHT22;11712;51.134;4.156;2022-08-21T13:54:36;25.30;99.90
23087;DHT22;11712;51.134;4.156;2022-08-21T13:57:03;25.40;99.90
23087;DHT22;11712;51.134;4.156;2022-08-21T13:59:34;25.60;99.90
23087;DHT22;11712;51.134;4.156;2022-08-21T14:02:21;25.90;99.90
23087;DHT22;11712;51.134;4.156;2022-08-21T14:04:57;26.40;99.90
23087;DHT22;11712;51.134;4.156;2022-08-21T14:07:38;26.20;99.90
23087;DHT22;11712;51.134;4.156;2022-08-21T14:10:07;26.00;99.90
23087;DHT22;11712;51.134;4.156;2022-08-21T14:12:59;25.80;99.90
23087;DHT22;11712;51.134;4.156;2022-08-21T14:15:28;25.30;99.90
23087;DHT22;11712;51.134;4.156;2022-08-21T14:18:24;25.30;99.90
23087;DHT22;11712;51.134;4.156;2022-08-21T14:20:52;25.50;99.90
23087;DHT22;11712;51.134;4.156;2022-08-21T14:23:25;25.70;99.90
23087;DHT22;11712;51.134;4.156;2022-08-21T14:25:52;25.70;99.90
23087;DHT22;11712;51.134;4.156;2022-08-21T14:30:43;25.60;99.90
23087;DHT22;11712;51.134;4.156;2022-08-21T14:33:18;25.60;99.90
23087;DHT22;11712;51.134;4.156;2022-08-21T14:35:46;25.30;99.90
23087;DHT22;11712;51.134;4.156;2022-08-21T14:38:16;25.40;99.90
23087;DHT22;11712;51.134;4.156;2022-08-21T14:40:43;25.60;99.90
23087;DHT22;11712;51.134;4.156;2022-08-21T14:43:09;25.80;99.90
23087;DHT22;11712;51.134;4.156;2022-08-21T14:45:35;26.00;99.90
23087;DHT22;11712;51.134;4.156;2022-08-21T14:48:02;26.10;99.90
23087;DHT22;11712;51.134;4.156;2022-08-21T14:50:28;26.00;99.90
23087;DHT22;11712;51.134;4.156;2022-08-21T14:52:54;26.00;99.90
23087;DHT22;11712;51.134;4.156;2022-08-21T14:55:20;26.00;99.90
23087;DHT22;11712;51.134;4.156;2022-08-21T14:57:48;26.20;99.90
23087;DHT22;11712;51.134;4.156;2022-08-21T15:00:18;25.60;99.90
23087;DHT22;11712;51.134;4.156;2022-08-21T15:02:45;25.50;99.90
23087;DHT22;11712;51.134;4.156;2022-08-21T15:05:11;25.80;99.90
23087;DHT22;11712;51.134;4.156;2022-08-21T15:07:36;26.00;99.90
23087;DHT22;11712;51.134;4.156;2022-08-21T15:10:04;26.00;99.90
23087;DHT22;11712;51.134;4.156;2022-08-21T15:12:30;25.50;99.90
23087;DHT22;11712;51.134;4.156;2022-08-21T15:14:56;25.60;99.90
23087;DHT22;11712;51.134;4.156;2022-08-21T15:17:22;25.80;99.90
23087;DHT22;11712;51.134;4.156;2022-08-21T15:19:47;26.00;99.90
23087;DHT22;11712;51.134;4.156;2022-08-21T15:22:13;26.20;99.90
23087;DHT22;11712;51.134;4.156;2022-08-21T15:24:39;26.20;99.90
23087;DHT22;11712;51.134;4.156;2022-08-21T15:27:06;26.20;99.90
23087;DHT22;11712;51.134;4.156;2022-08-21T15:29:33;26.00;99.90
23087;DHT22;11712;51.134;4.156;2022-08-21T15:32:15;26.00;99.90
23087;DHT22;11712;51.134;4.156;2022-08-21T15:34:41;26.00;99.90
23087;DHT22;11712;51.134;4.156;2022-08-21T15:37:06;25.80;99.90
23087;DHT22;11712;51.134;4.156;2022-08-21T15:39:34;25.90;99.90
23087;DHT22;11712;51.134;4.156;2022-08-21T15:42:00;25.80;99.90
23087;DHT22;11712;51.134;4.156;2022-08-21T15:44:27;25.90;99.90
23087;DHT22;11712;51.134;4.156;2022-08-21T15:46:53;25.90;99.90
23087;DHT22;11712;51.134;4.156;2022-08-21T15:49:19;25.80;99.90
23087;DHT22;11712;51.134;4.156;2022-08-21T15:51:45;25.80;99.90
23087;DHT22;11712;51.134;4.156;2022-08-21T15:54:10;25.50;99.90
23087;DHT22;11712;51.134;4.156;2022-08-21T15:56:38;25.10;99.90
23087;DHT22;11712;51.134;4.156;2022-08-21T15:59:08;25.20;99.90
23087;DHT22;11712;51.134;4.156;2022-08-21T16:01:38;25.20;99.90
23087;DHT22;11712;51.134;4.156;2022-08-21T16:04:05;24.90;99.90
23087;DHT22;11712;51.134;4.156;2022-08-21T16:06:31;24.70;99.90
23087;DHT22;11712;51.134;4.156;2022-08-21T16:08:57;24.50;99.90
23087;DHT22;11712;51.134;4.156;2022-08-21T16:11:23;24.20;99.90
23087;DHT22;11712;51.134;4.156;2022-08-21T16:13:49;24.50;99.90
23087;DHT22;11712;51.134;4.156;2022-08-21T16:16:19;24.50;99.90
23087;DHT22;11712;51.134;4.156;2022-08-21T16:18:46;24.40;99.90
23087;DHT22;11712;51.134;4.156;2022-08-21T16:21:13;24.10;99.90
23087;DHT22;11712;51.134;4.156;2022-08-21T16:23:39;24.20;99.90
23087;DHT22;11712;51.134;4.156;2022-08-21T16:26:06;24.40;99.90
23087;DHT22;11712;51.134;4.156;2022-08-21T16:28:34;24.20;99.90
23087;DHT22;11712;51.134;4.156;2022-08-21T16:31:02;24.00;99.90
23087;DHT22;11712;51.134;4.156;2022-08-21T16:33:39;24.20;99.90
23087;DHT22;11712;51.134;4.156;2022-08-21T16:36:06;24.60;99.90
23087;DHT22;11712;51.134;4.156;2022-08-21T16:38:34;24.70;99.90
23087;DHT22;11712;51.134;4.156;2022-08-21T16:41:06;24.90;99.90
23087;DHT22;11712;51.134;4.156;2022-08-21T16:43:33;25.20;99.90
23087;DHT22;11712;51.134;4.156;2022-08-21T16:45:59;24.60;99.90
23087;DHT22;11712;51.134;4.156;2022-08-21T16:48:26;24.60;99.90
23087;DHT22;11712;51.134;4.156;2022-08-21T16:50:52;24.50;99.90
23087;DHT22;11712;51.134;4.156;2022-08-21T16:53:18;24.20;99.90
23087;DHT22;11712;51.134;4.156;2022-08-21T16:55:44;23.90;99.90